Laddonia, MO (63352)

6:55 AM CST on January 19, 2017 (GMT -0600)
MD9110 | | Change Station

Elev 800 ft 39.17 °N, 91.87 °W | Updated 16 minutes ago

Overcast
Overcast
42.0 °F
Feels Like 42 °F
N
1.0
Wind Variable Wind from ESE
Gusts 5.0 mph

Today
High -- | Low -- °F
--% Chance of Precip.
Yesterday
High -- | Low -- °F
Precip. -- in
Pressure 29.89 in
Visibility 2.5 miles
Clouds Scattered Clouds 200 ft
Mostly Cloudy 600 ft
Overcast 3200 ft
Windchill 42 °F
Dew Point 40 °F
Humidity 93%
Rainfall 0.05 in
Snow Depth Not available.
7:22 AM 5:12 PM
Waning Gibbous, 54% visible
METAR KHAE 191235Z AUTO 18004KT 2 1/2SM RA SCT002 BKN006 OVC032 05/04 A2989 RMK AO2 P0003
Pressure 29.89 in
Visibility 2.5 miles
Clouds Scattered Clouds 200 ft
Mostly Cloudy 600 ft
Overcast 3200 ft
Windchill 42 °F
Dew Point 40 °F
Humidity 93%
Rainfall 0.05 in
Snow Depth Not available.
7:22 AM 5:12 PM
Waning Gibbous, 54% visible
METAR KHAE 191235Z AUTO 18004KT 2 1/2SM RA SCT002 BKN006 OVC032 05/04 A2989 RMK AO2 P0003

Get Your Daily Forecast Email!

Thanks for signing up!

Be on the lookout for a verification email in your inbox.

You'll start receiving the daily forecast at 8 AM.

×

10-Day Weather Forecast

Almanac

Astronomy

Jan. 19, 2017 Rise Set
Actual Time
Civil Twilight
Nautical Twilight
Astronomical Twilight
Moon
Length of Visible Light
Length of Day
Tomorrow will be .
, % of the Moon is Illuminated

Today's Extremes

State Highs State Lows

Community

WunderPhotos

Upload Photos

1,962,540 photos uploaded!

WunderBlog® & News

Nearby

Air Quality

  Air Quality AQ Index Pollutant
Not available.

Snow Depth

Station Depth Elevation

Earthquake Activity

City Distance Mag. Time & Date
Minimum magnitude displayed is 2.5.

Coastal Water Temperatures

Place Temperature

Stations

Nearby Weather Stations

Station Location Temp. Windchill Dew Point Humidity Wind Precip. Elev Updated Type
                   

Watches & Warnings

There are currently no watches in effect.